Terminal Aerodrome Forecast
Issued by NWS

Home | Current Version | Previous Version | Text Only | Print | Product List | Glossary Off
Versions: 1 2 3 4 5 6 7 8 9 10 11 12 13 14 15 16

075
FTUS43 KICT 170542
TAFSLN
TAF
KSLN 170542Z 1706/1806 30008KT P6SM OVC008
     FM170800 32009KT P6SM BKN020 OVC070
     FM171100 31006KT P6SM SCT035 BKN080
     FM172000 29006KT P6SM SCT100
      AMD NOT SKED=

USA.gov is the U.S. government's official web portal to all federal, state and local government web resources and services.